createdAt,value
2019-06-01T00:03:31.251Z,3.27
2019-06-01T00:14:25.650Z,3.27
2019-06-01T00:25:17.654Z,3.27
2019-06-01T00:36:21.271Z,3.27
2019-06-01T00:47:04.262Z,3.26
2019-06-01T00:58:07.610Z,3.26
2019-06-01T01:09:05.872Z,3.26
2019-06-01T01:20:02.154Z,3.26
2019-06-01T01:31:12.518Z,3.26
2019-06-01T01:41:59.568Z,3.25
2019-06-01T01:52:54.704Z,3.25
2019-06-01T02:03:57.515Z,3.25
2019-06-01T02:14:53.708Z,3.25
2019-06-01T02:25:52.922Z,3.25
2019-06-01T02:36:54.343Z,3.25
2019-06-01T02:47:57.340Z,3.25
2019-06-01T02:59:02.286Z,3.24
2019-06-01T03:10:00.864Z,3.23
2019-06-01T03:20:53.676Z,3.23
2019-06-01T03:31:51.530Z,3.23
2019-06-01T03:42:45.859Z,3.23
2019-06-01T03:53:38.830Z,3.23
2019-06-01T04:04:31.073Z,3.23
2019-06-01T04:15:26.420Z,3.23
2019-06-01T04:26:23.930Z,3.25
2019-06-01T04:37:23.351Z,3.25
2019-06-01T04:48:21.695Z,3.25
2019-06-01T04:59:19.373Z,3.26
2019-06-01T05:10:17.432Z,3.26
2019-06-01T05:21:10.926Z,3.26
2019-06-01T05:32:08.548Z,3.28
2019-06-01T05:43:11.066Z,3.29
2019-06-01T05:54:10.457Z,3.32
2019-06-01T06:05:10.488Z,3.30
2019-06-01T06:15:59.132Z,3.31
2019-06-01T06:26:57.763Z,3.31
2019-06-01T06:37:59.245Z,3.30
2019-06-01T06:48:58.209Z,3.31
2019-06-01T06:59:58.482Z,3.31
2019-06-01T07:11:03.353Z,3.32
2019-06-01T07:22:00.268Z,3.33
2019-06-01T07:33:05.031Z,3.34
2019-06-01T07:44:04.932Z,3.36
2019-06-01T07:54:57.454Z,3.37
2019-06-01T08:05:53.218Z,3.39
2019-06-01T08:16:55.545Z,3.39
2019-06-01T08:27:52.878Z,3.40
2019-06-01T08:38:48.205Z,3.39
2019-06-01T08:49:47.819Z,3.38
2019-06-01T09:00:45.919Z,3.38
2019-06-01T09:11:40.774Z,3.37
2019-06-01T09:22:38.850Z,3.39
2019-06-01T09:33:37.222Z,3.38
2019-06-01T09:44:35.309Z,3.39
2019-06-01T09:55:32.711Z,3.38
2019-06-01T10:06:36.650Z,3.42
2019-06-01T10:17:31.276Z,3.39
2019-06-01T10:28:35.627Z,3.39
2019-06-01T10:39:37.699Z,3.38
2019-06-01T10:50:34.852Z,3.40
2019-06-01T11:01:36.406Z,3.39
2019-06-01T11:12:34.944Z,3.38
2019-06-01T11:23:35.529Z,3.37
2019-06-01T11:34:36.633Z,3.39
2019-06-01T11:45:34.878Z,3.38
2019-06-01T11:56:39.184Z,3.39
2019-06-01T12:07:39.907Z,3.39
2019-06-01T12:18:40.634Z,3.38
2019-06-01T12:29:48.247Z,3.38
2019-06-01T12:40:54.977Z,3.38
2019-06-01T12:51:49.798Z,3.37
2019-06-01T13:02:59.296Z,3.40
2019-06-01T13:13:54.486Z,3.39
2019-06-01T13:25:01.317Z,3.39
2019-06-01T13:35:57.886Z,3.38
2019-06-01T13:46:51.432Z,3.38
2019-06-01T13:57:44.421Z,3.37
2019-06-01T14:08:37.431Z,3.40
2019-06-01T14:19:30.455Z,3.40
2019-06-01T14:30:33.541Z,3.39
2019-06-01T14:41:40.338Z,3.39
2019-06-01T14:52:29.422Z,3.39
2019-06-01T15:03:29.339Z,3.38
2019-06-01T15:45:43.858Z,3.42
2019-06-01T16:07:01.499Z,3.42
2019-06-01T16:17:38.880Z,3.39
2019-06-01T16:28:13.427Z,3.43
2019-06-01T16:39:14.608Z,3.43
2019-06-01T16:50:17.061Z,3.43
2019-06-01T17:01:20.256Z,3.43
2019-06-01T17:12:14.282Z,3.43
2019-06-01T17:23:25.819Z,3.42
2019-06-01T17:34:20.245Z,3.42
2019-06-01T17:45:19.740Z,3.41
2019-06-01T17:56:19.864Z,3.41
2019-06-01T18:07:19.310Z,3.40
2019-06-01T18:18:12.861Z,3.40
2019-06-01T18:29:12.744Z,3.39
2019-06-01T18:40:09.876Z,3.39
2019-06-01T18:51:12.355Z,3.39
2019-06-01T19:02:15.772Z,3.38
2019-06-01T19:13:10.147Z,3.37
2019-06-01T19:24:06.855Z,3.37
2019-06-01T19:35:07.477Z,3.37
2019-06-01T19:46:07.657Z,3.36
2019-06-01T19:57:02.428Z,3.36
2019-06-01T20:07:58.536Z,3.36
2019-06-01T20:18:55.311Z,3.36
2019-06-01T20:29:49.971Z,3.35
2019-06-01T20:40:50.923Z,3.35
2019-06-01T20:51:50.281Z,3.34
2019-06-01T21:02:47.376Z,3.34
2019-06-01T21:13:42.640Z,3.34
2019-06-01T21:24:39.397Z,3.34
2019-06-01T21:35:40.969Z,3.34
2019-06-01T21:46:38.189Z,3.33
2019-06-01T21:57:36.777Z,3.33
2019-06-01T22:08:34.411Z,3.33
2019-06-01T22:19:36.634Z,3.33
2019-06-01T22:30:35.493Z,3.33
2019-06-01T22:41:39.486Z,3.33
2019-06-01T22:52:35.074Z,3.32
2019-06-01T23:03:39.372Z,3.32
2019-06-01T23:14:39.494Z,3.32
2019-06-01T23:25:40.858Z,3.32
2019-06-01T23:36:41.231Z,3.32
2019-06-01T23:47:41.508Z,3.31
2019-06-01T23:58:39.911Z,3.31
